createdAt,value
2022-10-15T00:01:21.993Z,11.30
2022-10-15T00:04:23.795Z,10.55
2022-10-15T00:07:25.932Z,11.18
2022-10-15T00:10:28.212Z,12.48
2022-10-15T00:13:30.100Z,10.65
2022-10-15T00:16:33.320Z,10.65
2022-10-15T00:19:35.120Z,12.35
2022-10-15T00:22:37.597Z,15.10
2022-10-15T00:25:42.235Z,11.98
2022-10-15T00:28:44.440Z,16.05
2022-10-15T00:31:46.203Z,12.32
2022-10-15T00:34:48.666Z,15.88
2022-10-15T00:37:51.448Z,15.80
2022-10-15T00:40:53.144Z,11.23
2022-10-15T00:43:56.534Z,10.20
2022-10-15T00:47:14.399Z,12.30
2022-10-15T00:50:27.932Z,11.50
2022-10-15T00:53:30.331Z,9.65
2022-10-15T00:56:33.406Z,9.95
2022-10-15T00:59:39.295Z,12.63
2022-10-15T01:02:42.157Z,9.43
2022-10-15T01:05:45.979Z,10.88
2022-10-15T01:08:47.861Z,10.95
2022-10-15T01:11:52.196Z,10.10
2022-10-15T01:15:19.267Z,11.38
2022-10-15T01:18:32.379Z,11.45
2022-10-15T01:25:18.370Z,10.75
2022-10-15T01:28:44.785Z,10.52
2022-10-15T01:31:52.193Z,12.27
2022-10-15T01:35:19.090Z,13.43
2022-10-15T01:38:34.237Z,11.00
2022-10-15T01:41:42.049Z,10.55
2022-10-15T01:44:55.892Z,9.90
2022-10-15T01:48:10.666Z,11.23
2022-10-15T01:51:15.494Z,10.30
2022-10-15T01:54:20.400Z,10.07
2022-10-15T01:57:26.382Z,9.38
2022-10-15T02:00:28.671Z,12.75
2022-10-15T02:03:30.520Z,11.18
2022-10-15T02:06:37.273Z,10.90
2022-10-15T02:09:57.134Z,10.07
2022-10-15T02:13:09.839Z,8.63
2022-10-15T02:16:22.135Z,10.73
2022-10-15T02:19:39.654Z,9.98
2022-10-15T02:22:54.226Z,8.82
2022-10-15T02:25:57.473Z,9.57
2022-10-15T02:29:02.245Z,9.45
2022-10-15T02:32:07.538Z,8.48
2022-10-15T02:35:11.910Z,8.95
2022-10-15T02:38:20.784Z,10.00
2022-10-15T02:41:23.067Z,9.43
2022-10-15T02:44:24.814Z,9.70
2022-10-15T02:47:26.756Z,9.27
2022-10-15T02:50:28.596Z,9.80
2022-10-15T02:53:30.489Z,8.88
2022-10-15T02:56:32.537Z,8.63
2022-10-15T02:59:34.822Z,10.77
2022-10-15T03:02:37.483Z,8.02
2022-10-15T03:05:39.700Z,9.43
2022-10-15T03:08:44.742Z,7.72
2022-10-15T03:11:46.646Z,11.80
2022-10-15T03:14:48.536Z,11.35
2022-10-15T03:17:50.428Z,10.15
2022-10-15T03:20:57.308Z,7.20
2022-10-15T03:23:59.639Z,9.15
2022-10-15T03:27:02.407Z,8.30
2022-10-15T03:30:05.788Z,10.50
2022-10-15T03:33:09.123Z,8.25
2022-10-15T03:36:11.156Z,9.93
2022-10-15T03:39:13.592Z,10.45
2022-10-15T03:42:16.008Z,8.40
2022-10-15T03:45:20.746Z,10.13
2022-10-15T03:48:30.646Z,9.27
2022-10-15T03:51:32.865Z,11.60
2022-10-15T03:54:42.194Z,12.02
2022-10-15T03:57:45.459Z,11.23
2022-10-15T04:00:47.745Z,10.10
2022-10-15T04:03:53.339Z,11.68
2022-10-15T04:06:59.267Z,9.77
2022-10-15T04:10:02.308Z,9.75
2022-10-15T04:13:10.939Z,9.48
2022-10-15T04:16:13.165Z,10.07
2022-10-15T04:19:16.059Z,8.82
2022-10-15T04:22:21.708Z,8.63
2022-10-15T04:25:27.899Z,11.38
2022-10-15T04:28:29.896Z,9.02
2022-10-15T04:31:31.879Z,13.53
2022-10-15T04:34:34.907Z,11.38
2022-10-15T04:37:37.610Z,12.82
2022-10-15T04:40:41.191Z,8.50
2022-10-15T04:43:43.103Z,10.43
2022-10-15T04:46:46.498Z,11.93
2022-10-15T04:50:20.505Z,11.88
2022-10-15T04:53:40.921Z,15.85
2022-10-15T04:56:43.793Z,10.70
2022-10-15T04:59:45.640Z,11.18
2022-10-15T05:03:19.612Z,10.50
2022-10-15T05:06:41.687Z,14.10
2022-10-15T05:09:52.494Z,10.73
2022-10-15T05:12:56.783Z,10.13
2022-10-15T05:16:17.093Z,11.07
2022-10-15T05:19:19.172Z,9.52
2022-10-15T05:22:24.426Z,8.25
2022-10-15T05:25:30.163Z,12.02
2022-10-15T05:28:32.469Z,12.67
2022-10-15T05:31:34.779Z,22.30
2022-10-15T05:34:47.692Z,23.08
2022-10-15T05:37:51.613Z,19.83
2022-10-15T05:40:53.446Z,14.80
2022-10-15T05:43:59.440Z,10.75
2022-10-15T05:47:04.480Z,8.25
2022-10-15T05:50:09.557Z,8.55
2022-10-15T05:53:17.964Z,8.43
2022-10-15T05:56:22.073Z,7.70
2022-10-15T05:59:23.794Z,6.72
2022-10-15T06:02:25.708Z,7.38
2022-10-15T06:05:28.003Z,7.30
2022-10-15T06:08:31.017Z,6.10
2022-10-15T06:14:34.417Z,6.55
2022-10-15T06:17:36.426Z,5.33
2022-10-15T06:20:38.494Z,6.75
2022-10-15T06:23:40.367Z,10.17
2022-10-15T06:26:42.083Z,9.07
2022-10-15T06:29:43.865Z,6.53
2022-10-15T06:32:50.328Z,6.97
2022-10-15T06:35:52.145Z,6.65
2022-10-15T06:38:54.132Z,5.93
2022-10-15T06:41:55.871Z,6.32
2022-10-15T06:44:58.132Z,4.78
2022-10-15T06:47:59.944Z,5.82
2022-10-15T06:51:02.565Z,7.38
2022-10-15T06:54:04.449Z,5.05
2022-10-15T06:57:06.188Z,8.90
2022-10-15T07:00:08.408Z,5.80
2022-10-15T07:03:10.155Z,5.82
2022-10-15T07:06:11.932Z,6.32
2022-10-15T07:09:14.349Z,8.07
2022-10-15T07:12:16.471Z,15.73
2022-10-15T07:15:19.233Z,14.40
2022-10-15T07:18:21.022Z,9.93
2022-10-15T07:21:22.895Z,5.35
2022-10-15T07:24:24.609Z,4.57
2022-10-15T07:27:26.364Z,6.90
2022-10-15T07:30:28.943Z,5.55
2022-10-15T07:33:31.452Z,3.97
2022-10-15T07:36:35.911Z,6.43
2022-10-15T07:39:40.750Z,5.07
2022-10-15T07:42:43.504Z,5.40
2022-10-15T07:45:49.335Z,3.75
2022-10-15T07:48:51.159Z,5.15
2022-10-15T07:51:52.881Z,4.90
2022-10-15T07:54:54.659Z,14.85
2022-10-15T07:57:58.439Z,8.25
2022-10-15T08:01:06.747Z,5.75
2022-10-15T08:04:09.141Z,9.48
2022-10-15T08:07:12.840Z,10.68
2022-10-15T08:10:14.723Z,7.55
2022-10-15T08:13:16.511Z,4.18
2022-10-15T08:16:20.299Z,4.43
2022-10-15T08:19:32.879Z,4.13
2022-10-15T08:22:35.171Z,5.95
2022-10-15T08:25:36.941Z,5.13
2022-10-15T08:28:38.856Z,3.90
2022-10-15T08:31:40.721Z,2.67
2022-10-15T08:34:42.458Z,4.60
2022-10-15T08:37:44.206Z,3.15
2022-10-15T08:40:59.785Z,7.35
2022-10-15T08:44:02.373Z,11.38
2022-10-15T08:47:12.908Z,12.40
2022-10-15T08:50:26.607Z,19.77
2022-10-15T08:53:30.055Z,18.20
2022-10-15T08:56:36.954Z,11.20
2022-10-15T09:00:13.212Z,3.80
2022-10-15T09:03:30.833Z,3.00
2022-10-15T09:06:38.587Z,11.95
2022-10-15T09:09:43.076Z,7.88
2022-10-15T09:13:07.457Z,8.02
2022-10-15T09:16:36.209Z,5.60
2022-10-15T09:19:38.190Z,6.63
2022-10-15T09:22:42.603Z,10.63
2022-10-15T09:25:47.927Z,13.60
2022-10-15T09:29:01.894Z,14.38
2022-10-15T09:32:31.496Z,5.18
2022-10-15T09:35:45.503Z,10.18
2022-10-15T09:39:13.583Z,7.93
2022-10-15T09:42:36.269Z,6.55
2022-10-15T09:45:38.077Z,4.05
2022-10-15T09:49:21.501Z,4.00
2022-10-15T09:53:06.033Z,5.20
2022-10-15T09:56:15.968Z,7.25
2022-10-15T09:59:19.881Z,9.20
2022-10-15T10:02:25.279Z,8.00
2022-10-15T10:05:30.652Z,7.13
2022-10-15T10:08:37.566Z,11.00
2022-10-15T10:11:58.058Z,8.82
2022-10-15T10:15:26.721Z,6.60
2022-10-15T10:18:28.499Z,5.80
2022-10-15T10:21:37.249Z,7.38
2022-10-15T10:24:39.087Z,5.80
2022-10-15T10:27:45.951Z,7.80
2022-10-15T10:31:00.422Z,7.13
2022-10-15T10:34:03.253Z,6.18
2022-10-15T10:40:22.158Z,7.05
2022-10-15T10:43:29.486Z,5.28
2022-10-15T10:46:31.229Z,6.38
2022-10-15T10:49:42.667Z,6.72
2022-10-15T10:52:45.572Z,7.10
2022-10-15T10:55:48.801Z,7.23
2022-10-15T10:59:29.919Z,7.95
2022-10-15T11:02:34.113Z,7.32
2022-10-15T11:05:40.408Z,7.85
2022-10-15T11:08:42.113Z,25.70
2022-10-15T11:11:50.352Z,14.52
2022-10-15T11:15:10.470Z,11.48
2022-10-15T11:18:49.586Z,6.68
2022-10-15T11:22:02.168Z,6.43
2022-10-15T11:25:33.139Z,8.27
2022-10-15T11:28:56.162Z,6.05
2022-10-15T11:32:42.084Z,6.13
2022-10-15T11:36:16.261Z,5.88
2022-10-15T11:39:45.559Z,6.90
2022-10-15T11:42:56.769Z,6.00
2022-10-15T11:46:07.955Z,12.85
2022-10-15T11:49:29.547Z,6.05
2022-10-15T11:53:03.232Z,6.10
2022-10-15T11:56:14.914Z,5.38
2022-10-15T11:59:48.738Z,5.25
2022-10-15T12:02:52.269Z,27.08
2022-10-15T12:06:00.752Z,12.60
2022-10-15T12:09:09.753Z,8.63
2022-10-15T12:12:26.816Z,6.65
2022-10-15T12:15:56.979Z,11.20
2022-10-15T12:19:50.540Z,9.73
2022-10-15T12:22:52.292Z,15.27
2022-10-15T12:25:54.611Z,6.60
2022-10-15T12:29:00.935Z,6.68
2022-10-15T12:32:05.078Z,6.68
2022-10-15T12:35:35.175Z,4.88
2022-10-15T12:38:40.131Z,5.60
2022-10-15T12:41:45.264Z,36.75
2022-10-15T12:44:49.826Z,12.10
2022-10-15T12:47:56.115Z,26.10
2022-10-15T12:51:16.497Z,10.10
2022-10-15T12:54:37.763Z,7.30
2022-10-15T12:57:39.458Z,6.70
2022-10-15T13:00:42.621Z,8.55
2022-10-15T13:03:53.229Z,7.18
2022-10-15T13:07:03.793Z,6.97
2022-10-15T13:10:16.230Z,6.93
2022-10-15T13:13:31.137Z,6.68
2022-10-15T13:16:33.027Z,7.85
2022-10-15T13:19:39.465Z,10.83
2022-10-15T13:22:41.205Z,13.52
2022-10-15T13:25:43.200Z,8.82
2022-10-15T13:28:47.046Z,6.17
2022-10-15T13:31:50.467Z,11.13
2022-10-15T13:34:52.363Z,7.15
2022-10-15T13:37:54.146Z,8.60
2022-10-15T13:40:56.746Z,10.20
2022-10-15T13:44:02.578Z,12.90
2022-10-15T13:47:39.579Z,20.55
2022-10-15T13:50:41.321Z,41.70
2022-10-15T13:53:43.153Z,25.88
2022-10-15T13:56:53.065Z,23.35
2022-10-15T13:59:54.835Z,20.02
2022-10-15T14:03:13.407Z,16.25
2022-10-15T14:06:20.862Z,21.77
2022-10-15T14:09:33.261Z,16.10
2022-10-15T14:12:35.144Z,15.10
2022-10-15T14:15:49.473Z,20.02
2022-10-15T14:19:08.851Z,23.45
2022-10-15T14:22:18.341Z,54.30
2022-10-15T14:25:25.290Z,33.35
2022-10-15T14:28:29.572Z,18.52
2022-10-15T14:31:40.374Z,21.45
2022-10-15T14:34:42.390Z,30.65
2022-10-15T14:37:44.129Z,39.57
2022-10-15T14:41:20.961Z,45.88
2022-10-15T14:44:22.878Z,65.70
2022-10-15T14:47:27.670Z,38.70
2022-10-15T14:50:35.609Z,32.92
2022-10-15T14:53:43.607Z,30.10
2022-10-15T14:56:46.058Z,27.00
2022-10-15T14:59:48.035Z,22.23
2022-10-15T15:02:50.430Z,22.53
2022-10-15T15:05:55.133Z,33.03
2022-10-15T15:08:56.967Z,36.75
2022-10-15T15:11:58.914Z,43.75
2022-10-15T15:15:00.781Z,49.40
2022-10-15T15:18:02.573Z,62.72
2022-10-15T15:21:07.835Z,70.18
2022-10-15T15:24:09.822Z,70.38
2022-10-15T15:27:23.155Z,67.35
2022-10-15T15:30:28.137Z,71.82
2022-10-15T15:33:29.971Z,60.40
2022-10-15T15:36:31.763Z,58.28
2022-10-15T15:39:33.475Z,85.65
2022-10-15T15:42:35.258Z,80.45
2022-10-15T15:45:37.637Z,89.18
2022-10-15T15:48:39.463Z,103.43
2022-10-15T15:51:41.292Z,112.57
2022-10-15T15:54:45.127Z,93.05
2022-10-15T15:57:47.002Z,79.55
2022-10-15T16:00:48.717Z,79.97
2022-10-15T16:03:50.461Z,103.38
2022-10-15T16:06:52.245Z,106.72
2022-10-15T16:09:54.028Z,105.93
2022-10-15T16:12:56.748Z,122.40
2022-10-15T16:15:58.750Z,121.55
2022-10-15T16:19:00.551Z,101.13
2022-10-15T16:22:02.291Z,91.65
2022-10-15T16:25:04.624Z,99.93
2022-10-15T16:28:06.752Z,95.85
2022-10-15T16:31:18.855Z,120.03
2022-10-15T16:34:20.628Z,183.50
2022-10-15T16:37:22.685Z,175.48
2022-10-15T16:40:24.642Z,127.07
2022-10-15T16:43:26.740Z,116.30
2022-10-15T16:46:28.732Z,101.10
2022-10-15T16:49:30.576Z,105.38
2022-10-15T16:52:34.027Z,120.57
2022-10-15T16:55:35.919Z,104.95
2022-10-15T16:58:38.170Z,104.45
2022-10-15T17:01:39.988Z,99.13
2022-10-15T17:04:41.827Z,74.82
2022-10-15T17:07:43.582Z,58.20
2022-10-15T17:10:45.432Z,44.10
2022-10-15T17:13:49.037Z,36.00
2022-10-15T17:16:52.661Z,35.15
2022-10-15T17:19:54.710Z,33.40
2022-10-15T17:22:57.837Z,30.50
2022-10-15T17:26:14.594Z,27.73
2022-10-15T17:29:20.954Z,25.05
2022-10-15T17:32:23.075Z,27.17
2022-10-15T17:35:25.172Z,27.52
2022-10-15T17:38:26.902Z,30.58
2022-10-15T17:41:30.825Z,32.58
2022-10-15T17:44:34.219Z,42.72
2022-10-15T17:47:37.774Z,41.22
2022-10-15T17:50:44.590Z,51.35
2022-10-15T17:53:50.797Z,44.10
2022-10-15T17:56:52.536Z,31.48
2022-10-15T17:59:58.011Z,28.73
2022-10-15T18:03:00.248Z,30.40
2022-10-15T18:06:10.913Z,25.88
2022-10-15T18:09:13.786Z,28.83
2022-10-15T18:12:15.732Z,26.33
2022-10-15T18:15:17.460Z,27.23
2022-10-15T18:18:19.396Z,26.90
2022-10-15T18:21:23.777Z,31.17
2022-10-15T18:24:25.560Z,25.67
2022-10-15T18:27:27.879Z,25.77
2022-10-15T18:30:30.176Z,26.98
2022-10-15T18:33:32.421Z,28.57
2022-10-15T18:36:34.209Z,27.90
2022-10-15T18:39:36.374Z,30.27
2022-10-15T18:42:38.240Z,27.50
2022-10-15T18:45:40.474Z,27.83
2022-10-15T18:48:42.321Z,28.48
2022-10-15T18:51:46.176Z,26.80
2022-10-15T18:54:48.078Z,27.35
2022-10-15T18:57:49.790Z,30.77
2022-10-15T19:00:51.496Z,28.20
2022-10-15T19:03:55.130Z,26.50
2022-10-15T19:07:02.218Z,23.35
2022-10-15T19:10:04.385Z,27.02
2022-10-15T19:13:06.089Z,24.60
2022-10-15T19:16:08.247Z,25.38
2022-10-15T19:19:12.649Z,21.47
2022-10-15T19:22:14.771Z,22.65
2022-10-15T19:25:16.660Z,24.23
2022-10-15T19:28:19.599Z,25.58
2022-10-15T19:31:32.229Z,26.05
2022-10-15T19:34:35.414Z,29.00
2022-10-15T19:37:37.648Z,41.03
2022-10-15T19:40:44.710Z,40.53
2022-10-15T19:43:49.089Z,35.17
2022-10-15T19:46:51.730Z,40.33
2022-10-15T19:49:55.601Z,38.45
2022-10-15T19:52:57.383Z,44.45
2022-10-15T19:56:08.302Z,39.03
2022-10-15T19:59:11.376Z,34.40
2022-10-15T20:05:16.505Z,26.77
2022-10-15T20:08:18.829Z,27.25
2022-10-15T20:11:21.278Z,25.35
2022-10-15T20:14:23.016Z,28.65
2022-10-15T20:17:24.973Z,29.08
2022-10-15T20:20:27.808Z,26.77
2022-10-15T20:23:29.579Z,26.95
2022-10-15T20:26:31.397Z,25.77
2022-10-15T20:29:33.174Z,24.00
2022-10-15T20:32:38.733Z,23.58
2022-10-15T20:35:41.345Z,24.83
2022-10-15T20:38:43.646Z,21.08
2022-10-15T20:41:45.547Z,24.02
2022-10-15T20:44:47.318Z,23.48
2022-10-15T20:47:52.520Z,23.15
2022-10-15T20:50:55.697Z,22.92
2022-10-15T20:53:59.331Z,23.48
2022-10-15T20:57:01.509Z,22.70
2022-10-15T21:00:05.742Z,26.48
2022-10-15T21:03:07.575Z,24.77
2022-10-15T21:06:09.305Z,25.33
2022-10-15T21:09:11.768Z,20.85
2022-10-15T21:12:13.535Z,23.63
2022-10-15T21:15:15.264Z,23.83
2022-10-15T21:18:17.077Z,22.40
2022-10-15T21:21:18.851Z,23.83
2022-10-15T21:24:20.785Z,21.95
2022-10-15T21:27:22.792Z,22.45
2022-10-15T21:30:24.719Z,20.37
2022-10-15T21:33:26.567Z,21.90
2022-10-15T21:36:28.534Z,21.48
2022-10-15T21:39:30.319Z,22.55
2022-10-15T21:42:32.075Z,23.75
2022-10-15T21:45:33.936Z,23.35
2022-10-15T21:48:39.118Z,24.80
2022-10-15T21:51:40.959Z,24.27
2022-10-15T21:54:42.744Z,22.50
2022-10-15T21:57:44.518Z,21.73
2022-10-15T22:00:46.388Z,21.75
2022-10-15T22:03:50.257Z,19.75
2022-10-15T22:06:52.029Z,18.50
2022-10-15T22:09:53.842Z,22.42
2022-10-15T22:12:55.623Z,21.77
2022-10-15T22:16:00.111Z,21.55
2022-10-15T22:19:02.145Z,19.25
2022-10-15T22:22:03.895Z,21.73
2022-10-15T22:25:06.086Z,20.02
2022-10-15T22:28:07.810Z,22.65
2022-10-15T22:31:11.690Z,25.13
2022-10-15T22:34:14.289Z,27.55
2022-10-15T22:37:16.039Z,34.95
2022-10-15T22:40:17.791Z,28.58
2022-10-15T22:43:19.509Z,25.83
2022-10-15T22:46:21.416Z,31.40
2022-10-15T22:49:23.384Z,24.88
2022-10-15T22:52:25.443Z,27.38
2022-10-15T22:55:27.540Z,30.75
2022-10-15T22:58:31.017Z,25.20
2022-10-15T23:01:34.889Z,23.48
2022-10-15T23:04:36.811Z,24.65
2022-10-15T23:07:39.740Z,21.40
2022-10-15T23:10:41.534Z,21.50
2022-10-15T23:13:44.948Z,21.60
2022-10-15T23:16:47.854Z,21.02
2022-10-15T23:19:49.551Z,19.42
2022-10-15T23:22:51.379Z,20.05
2022-10-15T23:25:53.080Z,19.27
2022-10-15T23:28:57.639Z,18.23
2022-10-15T23:31:59.484Z,19.25
2022-10-15T23:35:01.258Z,19.05
2022-10-15T23:38:03.097Z,19.08
2022-10-15T23:41:07.698Z,16.10
2022-10-15T23:44:09.737Z,15.63
2022-10-15T23:47:11.600Z,19.03
2022-10-15T23:50:13.409Z,17.52
2022-10-15T23:53:15.146Z,17.73
2022-10-15T23:56:17.755Z,15.68
2022-10-15T23:59:21.283Z,18.15
